TUI8924 EDVK-LIRN
Flight info
| Callsign | TUI8924 |
|---|---|
| Flight time | 1h 46m |
| Altitude | 39000 |
| Route | XAROL1E/09 XAROL N850 GISEM DCT BOMBI DCT GIGET DCT ABUKA DCT BATUB DCT TIRUL DCT NATAG DCT LORLO DCT BORMI DCT VADIK DCT SOVUB DCT BAKEP DCT TIXIR DCT SUXUB DCT ERIKA |
| Aircraft | B38M/M-SDE1FGHILORVWXY/HB1 |
Departure
| Time | 2026-05-05 17:09 |
|---|---|
| Airport | Kassel Airport (EDVK) |
Arrival
| Time | 2026-05-05 18:56 |
|---|---|
| Airport | Naples International Airport (LIRN) |
| Time | Latitude | Longitude | Altitude | Speed | Heading |
|---|---|---|---|---|---|
| 2026-05-05 16:47 | 51.41699 | 9.38751 | 854 ft | 0 kts | 274° |
| 2026-05-05 17:05 | 51.41699 | 9.38749 | 866 ft | 0 kts | 281° |
| 2026-05-05 17:05 | 51.41702 | 9.38746 | 866 ft | 1 kts | 326° |
| 2026-05-05 17:06 | 51.41728 | 9.38757 | 866 ft | 7 kts | 31° |
| 2026-05-05 17:06 | 51.41762 | 9.38836 | 849 ft | 8 kts | 38° |
| 2026-05-05 17:06 | 51.41821 | 9.38851 | 859 ft | 10 kts | 5° |
| 2026-05-05 17:06 | 51.41899 | 9.38861 | 859 ft | 12 kts | 359° |
| 2026-05-05 17:07 | 51.41945 | 9.38762 | 863 ft | 13 kts | 278° |
| 2026-05-05 17:07 | 51.41951 | 9.38616 | 862 ft | 14 kts | 276° |
| 2026-05-05 17:07 | 51.41960 | 9.38447 | 857 ft | 17 kts | 275° |
| 2026-05-05 17:07 | 51.41974 | 9.38227 | 866 ft | 23 kts | 276° |
| 2026-05-05 17:08 | 51.41992 | 9.37942 | 866 ft | 29 kts | 274° |
| 2026-05-05 17:08 | 51.42008 | 9.37632 | 861 ft | 27 kts | 271° |
| 2026-05-05 17:08 | 51.42055 | 9.37429 | 865 ft | 18 kts | 343° |
| 2026-05-05 17:08 | 51.42132 | 9.37436 | 853 ft | 17 kts | 21° |
| 2026-05-05 17:09 | 51.42167 | 9.37641 | 859 ft | 40 kts | 97° |
| 2026-05-05 17:09 | 51.42119 | 9.38560 | 866 ft | 123 kts | 95° |
| 2026-05-05 17:09 | 51.42019 | 9.40296 | 956 ft | 182 kts | 97° |
| 2026-05-05 17:09 | 51.41856 | 9.42439 | 1737 ft | 198 kts | 94° |
| 2026-05-05 17:10 | 51.41749 | 9.44614 | 2981 ft | 192 kts | 92° |
| 2026-05-05 17:10 | 51.41646 | 9.46788 | 3909 ft | 202 kts | 94° |
| 2026-05-05 17:10 | 51.41541 | 9.49075 | 4412 ft | 213 kts | 91° |
| 2026-05-05 17:10 | 51.41944 | 9.51392 | 4409 ft | 229 kts | 53° |
| 2026-05-05 17:11 | 51.43262 | 9.52897 | 4531 ft | 246 kts | 18° |
| 2026-05-05 17:11 | 51.45014 | 9.53019 | 4611 ft | 262 kts | 350° |
| 2026-05-05 17:11 | 51.46161 | 9.52369 | 4653 ft | 268 kts | 329° |
| 2026-05-05 17:11 | 51.47368 | 9.50460 | 4753 ft | 272 kts | 300° |
| 2026-05-05 17:12 | 51.47916 | 9.47578 | 4874 ft | 273 kts | 270° |
| 2026-05-05 17:12 | 51.47494 | 9.44642 | 4962 ft | 272 kts | 240° |
| 2026-05-05 17:12 | 51.46462 | 9.42101 | 5007 ft | 274 kts | 235° |
| 2026-05-05 17:12 | 51.45424 | 9.39531 | 5654 ft | 272 kts | 236° |
| 2026-05-05 17:13 | 51.44418 | 9.37033 | 6861 ft | 270 kts | 235° |
| 2026-05-05 17:13 | 51.43397 | 9.34491 | 7916 ft | 275 kts | 236° |
| 2026-05-05 17:13 | 51.42357 | 9.31879 | 8955 ft | 280 kts | 236° |
| 2026-05-05 17:13 | 51.41307 | 9.29234 | 9986 ft | 283 kts | 236° |
| 2026-05-05 17:14 | 51.40225 | 9.26494 | 10623 ft | 301 kts | 236° |
| 2026-05-05 17:14 | 51.39072 | 9.23560 | 11106 ft | 321 kts | 236° |
| 2026-05-05 17:14 | 51.37846 | 9.20448 | 11589 ft | 339 kts | 237° |
| 2026-05-05 17:14 | 51.36557 | 9.17204 | 12166 ft | 352 kts | 236° |
| 2026-05-05 17:15 | 51.35243 | 9.13921 | 12890 ft | 358 kts | 236° |
| 2026-05-05 17:15 | 51.33888 | 9.10568 | 13728 ft | 361 kts | 236° |
| 2026-05-05 17:15 | 51.32427 | 9.07268 | 14389 ft | 365 kts | 226° |
| 2026-05-05 17:15 | 51.30417 | 9.04815 | 15093 ft | 366 kts | 206° |
| 2026-05-05 17:16 | 51.28002 | 9.03533 | 15779 ft | 369 kts | 192° |
| 2026-05-05 17:16 | 51.25481 | 9.02628 | 16421 ft | 373 kts | 192° |
| 2026-05-05 17:16 | 51.22935 | 9.01734 | 17108 ft | 376 kts | 192° |
| 2026-05-05 17:16 | 51.20365 | 9.00851 | 17757 ft | 380 kts | 192° |
| 2026-05-05 17:17 | 51.17805 | 8.99982 | 18365 ft | 383 kts | 192° |
| 2026-05-05 17:17 | 51.15190 | 8.99100 | 18936 ft | 385 kts | 192° |
| 2026-05-05 17:17 | 51.12557 | 8.98214 | 19491 ft | 388 kts | 191° |
| 2026-05-05 17:17 | 51.09903 | 8.97393 | 20073 ft | 390 kts | 190° |
| 2026-05-05 17:18 | 51.07222 | 8.96598 | 20637 ft | 393 kts | 191° |
| 2026-05-05 17:18 | 51.04533 | 8.95716 | 21202 ft | 396 kts | 191° |
| 2026-05-05 17:18 | 51.01826 | 8.94823 | 21773 ft | 399 kts | 191° |
| 2026-05-05 17:18 | 50.99100 | 8.93927 | 22308 ft | 402 kts | 191° |
| 2026-05-05 17:19 | 50.96352 | 8.93026 | 22789 ft | 406 kts | 191° |
| 2026-05-05 17:19 | 50.93615 | 8.92130 | 23300 ft | 408 kts | 191° |
| 2026-05-05 17:19 | 50.90825 | 8.91219 | 23740 ft | 411 kts | 191° |
| 2026-05-05 17:19 | 50.88019 | 8.90303 | 24174 ft | 413 kts | 191° |
| 2026-05-05 17:20 | 50.85197 | 8.89384 | 24594 ft | 415 kts | 191° |
| 2026-05-05 17:20 | 50.82364 | 8.88443 | 25001 ft | 417 kts | 192° |
| 2026-05-05 17:20 | 50.79523 | 8.87451 | 25409 ft | 419 kts | 191° |
| 2026-05-05 17:20 | 50.76666 | 8.86461 | 25818 ft | 421 kts | 191° |
| 2026-05-05 17:21 | 50.73797 | 8.85471 | 26253 ft | 423 kts | 191° |
| 2026-05-05 17:21 | 50.70913 | 8.84477 | 26659 ft | 426 kts | 191° |
| 2026-05-05 17:21 | 50.68990 | 8.83814 | 26922 ft | 427 kts | 191° |
| 2026-05-05 17:22 | 50.62588 | 8.81894 | 27751 ft | 431 kts | 181° |
| 2026-05-05 17:22 | 50.59585 | 8.81837 | 28128 ft | 433 kts | 181° |
| 2026-05-05 17:22 | 50.56566 | 8.81718 | 28485 ft | 435 kts | 181° |
| 2026-05-05 17:22 | 50.53532 | 8.81611 | 28859 ft | 437 kts | 180° |
| 2026-05-05 17:23 | 50.50480 | 8.81508 | 29180 ft | 440 kts | 180° |
| 2026-05-05 17:23 | 50.47415 | 8.81406 | 29601 ft | 440 kts | 180° |
| 2026-05-05 17:23 | 50.44361 | 8.81304 | 30087 ft | 438 kts | 180° |
| 2026-05-05 17:23 | 50.41357 | 8.81204 | 30535 ft | 436 kts | 180° |
| 2026-05-05 17:24 | 50.38333 | 8.81104 | 30998 ft | 434 kts | 180° |
| 2026-05-05 17:24 | 50.35324 | 8.81004 | 31468 ft | 431 kts | 180° |
| 2026-05-05 17:24 | 50.32331 | 8.80905 | 31932 ft | 429 kts | 180° |
| 2026-05-05 17:24 | 50.29358 | 8.80806 | 32384 ft | 427 kts | 180° |
| 2026-05-05 17:25 | 50.26391 | 8.80709 | 32780 ft | 426 kts | 180° |
| 2026-05-05 17:25 | 50.24433 | 8.80644 | 33069 ft | 425 kts | 180° |
| 2026-05-05 17:25 | 50.20492 | 8.80514 | 33666 ft | 422 kts | 180° |
| 2026-05-05 17:25 | 50.17565 | 8.80417 | 34054 ft | 420 kts | 180° |
| 2026-05-05 17:26 | 50.14684 | 8.80326 | 34356 ft | 420 kts | 180° |
| 2026-05-05 17:26 | 50.11763 | 8.80228 | 34613 ft | 420 kts | 180° |
| 2026-05-05 17:26 | 50.08837 | 8.80131 | 34885 ft | 421 kts | 180° |
| 2026-05-05 17:26 | 50.05907 | 8.79999 | 35123 ft | 422 kts | 184° |
| 2026-05-05 17:27 | 50.02982 | 8.79438 | 35363 ft | 423 kts | 186° |
| 2026-05-05 17:27 | 50.01314 | 8.79100 | 35501 ft | 424 kts | 186° |
| 2026-05-05 17:27 | 49.98385 | 8.78504 | 35745 ft | 424 kts | 187° |
| 2026-05-05 17:27 | 49.95466 | 8.77898 | 36004 ft | 425 kts | 187° |
| 2026-05-05 17:28 | 49.92536 | 8.77368 | 36249 ft | 424 kts | 185° |
| 2026-05-05 17:28 | 49.89615 | 8.76712 | 36395 ft | 425 kts | 187° |
| 2026-05-05 17:28 | 49.86851 | 8.76122 | 36624 ft | 425 kts | 187° |
| 2026-05-05 17:28 | 49.83954 | 8.75518 | 36818 ft | 426 kts | 187° |
| 2026-05-05 17:29 | 49.81010 | 8.74909 | 37000 ft | 428 kts | 187° |
| 2026-05-05 17:29 | 49.78060 | 8.74301 | 37232 ft | 428 kts | 188° |
| 2026-05-05 17:29 | 49.75107 | 8.73693 | 37460 ft | 428 kts | 188° |
| 2026-05-05 17:29 | 49.72161 | 8.73087 | 37690 ft | 428 kts | 188° |
| 2026-05-05 17:30 | 49.69208 | 8.72487 | 37897 ft | 428 kts | 188° |
| 2026-05-05 17:30 | 49.66255 | 8.71890 | 38116 ft | 428 kts | 188° |
| 2026-05-05 17:30 | 49.63307 | 8.71294 | 38320 ft | 428 kts | 188° |
| 2026-05-05 17:30 | 49.60394 | 8.70705 | 38528 ft | 427 kts | 188° |
| 2026-05-05 17:31 | 49.57445 | 8.70111 | 38683 ft | 427 kts | 188° |
| 2026-05-05 17:31 | 49.54501 | 8.69518 | 38793 ft | 428 kts | 188° |
| 2026-05-05 17:31 | 49.51539 | 8.68922 | 38832 ft | 429 kts | 188° |
| 2026-05-05 17:32 | 49.45628 | 8.68959 | 38815 ft | 429 kts | 166° |
| 2026-05-05 17:32 | 49.39988 | 8.72153 | 38805 ft | 434 kts | 161° |
| 2026-05-05 17:33 | 49.34370 | 8.75587 | 38833 ft | 435 kts | 160° |
| 2026-05-05 17:33 | 49.28806 | 8.79061 | 38831 ft | 434 kts | 160° |
| 2026-05-05 17:34 | 49.23208 | 8.82561 | 38817 ft | 435 kts | 160° |
| 2026-05-05 17:34 | 49.17610 | 8.86054 | 38812 ft | 435 kts | 160° |
| 2026-05-05 17:35 | 49.12019 | 8.89534 | 38818 ft | 434 kts | 160° |
| 2026-05-05 17:35 | 49.06468 | 8.92982 | 38821 ft | 433 kts | 160° |
| 2026-05-05 17:36 | 49.00885 | 8.96440 | 38823 ft | 433 kts | 160° |
| 2026-05-05 17:36 | 48.95294 | 8.99895 | 38819 ft | 433 kts | 161° |
| 2026-05-05 17:37 | 48.89701 | 9.03343 | 38830 ft | 434 kts | 161° |
| 2026-05-05 17:37 | 48.84335 | 9.06642 | 38827 ft | 434 kts | 161° |
| 2026-05-05 17:38 | 48.78773 | 9.10055 | 38826 ft | 434 kts | 161° |
| 2026-05-05 17:38 | 48.73173 | 9.13484 | 38829 ft | 434 kts | 161° |
| 2026-05-05 17:39 | 48.67569 | 9.16905 | 38809 ft | 434 kts | 161° |
| 2026-05-05 17:39 | 48.61974 | 9.20313 | 38827 ft | 433 kts | 161° |
| 2026-05-05 17:40 | 48.56423 | 9.23687 | 38830 ft | 433 kts | 161° |
| 2026-05-05 17:40 | 48.50836 | 9.27073 | 38824 ft | 433 kts | 161° |
| 2026-05-05 17:41 | 48.45248 | 9.30453 | 38830 ft | 433 kts | 161° |
| 2026-05-05 17:41 | 48.39655 | 9.33828 | 38830 ft | 433 kts | 161° |
| 2026-05-05 17:42 | 48.34096 | 9.37173 | 38830 ft | 433 kts | 161° |
| 2026-05-05 17:42 | 48.28504 | 9.40531 | 38831 ft | 433 kts | 161° |
| 2026-05-05 17:43 | 48.22912 | 9.43882 | 38826 ft | 433 kts | 161° |
| 2026-05-05 17:43 | 48.17321 | 9.47223 | 38824 ft | 432 kts | 161° |
| 2026-05-05 17:44 | 48.11729 | 9.50559 | 38830 ft | 432 kts | 161° |
| 2026-05-05 17:44 | 48.06178 | 9.53863 | 38835 ft | 432 kts | 161° |
| 2026-05-05 17:45 | 48.00726 | 9.57670 | 38828 ft | 437 kts | 148° |
| 2026-05-05 17:45 | 47.95686 | 9.62802 | 38833 ft | 439 kts | 149° |
| 2026-05-05 17:46 | 47.90637 | 9.67933 | 38834 ft | 439 kts | 149° |
| 2026-05-05 17:46 | 47.85595 | 9.73069 | 38843 ft | 439 kts | 149° |
| 2026-05-05 17:47 | 47.80581 | 9.78166 | 38833 ft | 440 kts | 149° |
| 2026-05-05 17:47 | 47.75510 | 9.83310 | 38857 ft | 443 kts | 149° |
| 2026-05-05 17:48 | 47.70420 | 9.88461 | 38857 ft | 442 kts | 149° |
| 2026-05-05 17:48 | 47.65329 | 9.93600 | 38857 ft | 442 kts | 149° |
| 2026-05-05 17:49 | 47.60277 | 9.98687 | 38856 ft | 442 kts | 149° |
| 2026-05-05 17:49 | 47.55180 | 10.03807 | 38851 ft | 443 kts | 149° |
| 2026-05-05 17:50 | 47.50068 | 10.08931 | 38849 ft | 444 kts | 150° |
| 2026-05-05 17:50 | 47.44957 | 10.14041 | 38871 ft | 443 kts | 150° |
| 2026-05-05 17:51 | 47.39888 | 10.19097 | 38852 ft | 443 kts | 150° |
| 2026-05-05 17:51 | 47.34777 | 10.24183 | 38864 ft | 443 kts | 150° |
| 2026-05-05 17:52 | 47.29655 | 10.29267 | 38877 ft | 444 kts | 150° |
| 2026-05-05 17:52 | 47.24530 | 10.34343 | 38880 ft | 444 kts | 150° |
| 2026-05-05 17:53 | 47.19433 | 10.39380 | 38865 ft | 444 kts | 150° |
| 2026-05-05 17:53 | 47.14305 | 10.44434 | 38882 ft | 443 kts | 150° |
| 2026-05-05 17:54 | 47.09184 | 10.49473 | 38874 ft | 444 kts | 151° |
| 2026-05-05 17:54 | 47.03796 | 10.53600 | 38861 ft | 429 kts | 168° |
| 2026-05-05 17:55 | 46.98073 | 10.56287 | 38854 ft | 433 kts | 166° |
| 2026-05-05 17:55 | 46.92372 | 10.58907 | 38901 ft | 433 kts | 167° |
| 2026-05-05 17:56 | 46.86608 | 10.61511 | 38933 ft | 433 kts | 167° |
| 2026-05-05 17:56 | 46.80875 | 10.64092 | 38885 ft | 431 kts | 167° |
| 2026-05-05 17:57 | 46.75132 | 10.66672 | 38974 ft | 434 kts | 167° |
| 2026-05-05 17:57 | 46.69562 | 10.69974 | 38968 ft | 438 kts | 159° |
| 2026-05-05 17:58 | 46.64092 | 10.73868 | 38972 ft | 437 kts | 159° |
| 2026-05-05 17:58 | 46.58649 | 10.77760 | 38978 ft | 435 kts | 159° |
| 2026-05-05 17:59 | 46.53208 | 10.81644 | 38951 ft | 436 kts | 159° |
| 2026-05-05 17:59 | 46.47811 | 10.85493 | 39016 ft | 436 kts | 159° |
| 2026-05-05 18:00 | 46.42352 | 10.89373 | 38988 ft | 437 kts | 159° |
| 2026-05-05 18:00 | 46.36871 | 10.93261 | 39011 ft | 440 kts | 159° |
| 2026-05-05 18:01 | 46.31376 | 10.97151 | 39014 ft | 439 kts | 159° |
| 2026-05-05 18:01 | 46.25917 | 11.01004 | 39009 ft | 440 kts | 159° |
| 2026-05-05 18:02 | 46.20423 | 11.04876 | 39028 ft | 439 kts | 159° |
| 2026-05-05 18:02 | 46.14925 | 11.08741 | 39009 ft | 439 kts | 159° |
| 2026-05-05 18:03 | 46.09433 | 11.12594 | 39030 ft | 440 kts | 159° |
| 2026-05-05 18:03 | 46.03983 | 11.16439 | 38993 ft | 440 kts | 156° |
| 2026-05-05 18:04 | 45.98572 | 11.20664 | 39014 ft | 445 kts | 156° |
| 2026-05-05 18:04 | 45.93113 | 11.24874 | 39031 ft | 445 kts | 156° |
| 2026-05-05 18:05 | 45.87652 | 11.29071 | 39015 ft | 445 kts | 156° |
| 2026-05-05 18:05 | 45.82218 | 11.33237 | 38991 ft | 446 kts | 156° |
| 2026-05-05 18:06 | 45.76751 | 11.37418 | 39005 ft | 446 kts | 156° |
| 2026-05-05 18:06 | 45.71276 | 11.41597 | 39021 ft | 446 kts | 156° |
| 2026-05-05 18:07 | 45.65811 | 11.45759 | 39002 ft | 445 kts | 156° |
| 2026-05-05 18:07 | 45.60391 | 11.49936 | 39005 ft | 446 kts | 156° |
| 2026-05-05 18:08 | 45.54929 | 11.54142 | 39000 ft | 447 kts | 156° |
| 2026-05-05 18:08 | 45.49444 | 11.58356 | 39009 ft | 448 kts | 156° |
| 2026-05-05 18:09 | 45.43959 | 11.62561 | 39003 ft | 448 kts | 156° |
| 2026-05-05 18:09 | 45.38473 | 11.66756 | 39009 ft | 448 kts | 156° |
| 2026-05-05 18:10 | 45.33011 | 11.70924 | 39010 ft | 450 kts | 156° |
| 2026-05-05 18:10 | 45.27484 | 11.75134 | 39020 ft | 451 kts | 156° |
| 2026-05-05 18:11 | 45.21952 | 11.79336 | 39012 ft | 451 kts | 156° |
| 2026-05-05 18:11 | 45.16427 | 11.83524 | 39014 ft | 451 kts | 156° |
| 2026-05-05 18:12 | 45.10922 | 11.87687 | 39014 ft | 453 kts | 156° |
| 2026-05-05 18:12 | 45.05360 | 11.91886 | 39002 ft | 453 kts | 157° |
| 2026-05-05 18:13 | 44.99798 | 11.96074 | 38991 ft | 454 kts | 157° |
| 2026-05-05 18:13 | 44.94209 | 12.00275 | 38984 ft | 455 kts | 157° |
| 2026-05-05 18:14 | 44.88695 | 12.04576 | 38998 ft | 456 kts | 156° |
| 2026-05-05 18:14 | 44.83148 | 12.08926 | 38989 ft | 456 kts | 156° |
| 2026-05-05 18:15 | 44.77596 | 12.13265 | 38989 ft | 456 kts | 156° |
| 2026-05-05 18:15 | 44.72044 | 12.17592 | 38977 ft | 456 kts | 156° |
| 2026-05-05 18:16 | 44.66505 | 12.21902 | 38971 ft | 461 kts | 156° |
| 2026-05-05 18:16 | 44.60883 | 12.26267 | 38976 ft | 462 kts | 156° |
| 2026-05-05 18:17 | 44.55265 | 12.30618 | 38969 ft | 461 kts | 156° |
| 2026-05-05 18:17 | 44.49641 | 12.34964 | 38965 ft | 462 kts | 156° |
| 2026-05-05 18:18 | 44.44018 | 12.39300 | 38968 ft | 462 kts | 156° |
| 2026-05-05 18:18 | 44.38427 | 12.43602 | 38951 ft | 461 kts | 156° |
| 2026-05-05 18:19 | 44.32784 | 12.47934 | 38969 ft | 464 kts | 156° |
| 2026-05-05 18:19 | 44.27121 | 12.52273 | 38964 ft | 464 kts | 157° |
| 2026-05-05 18:20 | 44.21452 | 12.56605 | 38965 ft | 465 kts | 157° |
| 2026-05-05 18:20 | 44.15772 | 12.60740 | 38992 ft | 463 kts | 159° |
| 2026-05-05 18:21 | 44.10007 | 12.64745 | 38993 ft | 463 kts | 159° |
| 2026-05-05 18:21 | 44.04244 | 12.68760 | 38994 ft | 463 kts | 159° |
| 2026-05-05 18:22 | 43.98487 | 12.72765 | 38994 ft | 463 kts | 159° |
| 2026-05-05 18:22 | 43.92761 | 12.76738 | 38991 ft | 463 kts | 159° |
| 2026-05-05 18:23 | 43.86989 | 12.80736 | 38981 ft | 464 kts | 159° |
| 2026-05-05 18:23 | 43.81208 | 12.84731 | 38981 ft | 464 kts | 159° |
| 2026-05-05 18:24 | 43.75426 | 12.88718 | 38977 ft | 464 kts | 159° |
| 2026-05-05 18:24 | 43.69681 | 12.92671 | 38985 ft | 464 kts | 159° |
| 2026-05-05 18:25 | 43.63895 | 12.96642 | 38982 ft | 465 kts | 159° |
| 2026-05-05 18:25 | 43.58098 | 13.00615 | 38989 ft | 465 kts | 159° |
| 2026-05-05 18:26 | 43.52301 | 13.04577 | 39002 ft | 465 kts | 159° |
| 2026-05-05 18:26 | 43.46543 | 13.08506 | 38976 ft | 465 kts | 160° |
| 2026-05-05 18:27 | 43.40742 | 13.12453 | 38998 ft | 465 kts | 160° |
| 2026-05-05 18:27 | 43.34931 | 13.16400 | 39000 ft | 467 kts | 159° |
| 2026-05-05 18:28 | 43.26181 | 13.22327 | 39003 ft | 467 kts | 160° |
| 2026-05-05 18:28 | 43.20392 | 13.26239 | 39009 ft | 467 kts | 160° |
| 2026-05-05 18:29 | 43.14563 | 13.30169 | 39005 ft | 467 kts | 160° |
| 2026-05-05 18:29 | 43.08728 | 13.34093 | 39012 ft | 467 kts | 160° |
| 2026-05-05 18:30 | 43.02895 | 13.38008 | 39012 ft | 467 kts | 160° |
| 2026-05-05 18:30 | 42.97099 | 13.41891 | 39019 ft | 467 kts | 160° |
| 2026-05-05 18:31 | 42.91264 | 13.45791 | 39017 ft | 467 kts | 160° |
| 2026-05-05 18:31 | 42.85434 | 13.49680 | 39006 ft | 467 kts | 160° |
| 2026-05-05 18:32 | 42.79582 | 13.53574 | 39014 ft | 469 kts | 160° |
| 2026-05-05 18:32 | 42.73762 | 13.57440 | 39018 ft | 468 kts | 160° |
| 2026-05-05 18:33 | 42.67902 | 13.61324 | 39016 ft | 469 kts | 160° |
| 2026-05-05 18:33 | 42.62041 | 13.65200 | 39026 ft | 469 kts | 160° |
| 2026-05-05 18:34 | 42.56175 | 13.69072 | 39021 ft | 469 kts | 160° |
| 2026-05-05 18:34 | 42.50347 | 13.72910 | 39027 ft | 469 kts | 160° |
| 2026-05-05 18:35 | 42.44482 | 13.76765 | 39022 ft | 468 kts | 160° |
| 2026-05-05 18:35 | 42.38632 | 13.80603 | 38985 ft | 467 kts | 160° |
| 2026-05-05 18:36 | 42.35710 | 13.82515 | 38149 ft | 470 kts | 160° |
| 2026-05-05 18:36 | 42.32734 | 13.84465 | 36794 ft | 480 kts | 160° |
| 2026-05-05 18:36 | 42.29791 | 13.86391 | 36345 ft | 472 kts | 160° |
| 2026-05-05 18:36 | 42.26841 | 13.88317 | 35697 ft | 470 kts | 161° |
| 2026-05-05 18:37 | 42.23821 | 13.89945 | 34797 ft | 468 kts | 167° |
| 2026-05-05 18:37 | 42.20735 | 13.91449 | 33904 ft | 474 kts | 167° |
| 2026-05-05 18:37 | 42.17640 | 13.93000 | 33050 ft | 475 kts | 166° |
| 2026-05-05 18:37 | 42.14547 | 13.94571 | 32303 ft | 474 kts | 166° |
| 2026-05-05 18:38 | 42.11468 | 13.96143 | 31617 ft | 473 kts | 165° |
| 2026-05-05 18:38 | 42.08388 | 13.97716 | 30804 ft | 475 kts | 165° |
| 2026-05-05 18:38 | 42.05289 | 13.99297 | 29833 ft | 480 kts | 165° |
| 2026-05-05 18:38 | 42.02193 | 14.00874 | 28759 ft | 484 kts | 164° |
| 2026-05-05 18:39 | 41.99043 | 14.02477 | 27903 ft | 483 kts | 164° |
| 2026-05-05 18:39 | 41.95916 | 14.04068 | 27254 ft | 477 kts | 163° |
| 2026-05-05 18:39 | 41.92823 | 14.05639 | 26558 ft | 473 kts | 163° |
| 2026-05-05 18:39 | 41.89714 | 14.06990 | 25779 ft | 466 kts | 173° |
| 2026-05-05 18:40 | 41.86521 | 14.07275 | 25046 ft | 456 kts | 187° |
| 2026-05-05 18:40 | 41.83394 | 14.06881 | 24495 ft | 448 kts | 189° |
| 2026-05-05 18:40 | 41.80314 | 14.06405 | 23862 ft | 444 kts | 189° |
| 2026-05-05 18:40 | 41.77252 | 14.05880 | 23099 ft | 442 kts | 190° |
| 2026-05-05 18:41 | 41.74256 | 14.05343 | 22402 ft | 438 kts | 190° |
| 2026-05-05 18:41 | 41.71257 | 14.04789 | 21770 ft | 432 kts | 191° |
| 2026-05-05 18:41 | 41.68293 | 14.04246 | 21174 ft | 427 kts | 189° |
| 2026-05-05 18:41 | 41.65309 | 14.04297 | 20255 ft | 435 kts | 173° |
| 2026-05-05 18:42 | 41.62382 | 14.05475 | 19256 ft | 445 kts | 158° |
| 2026-05-05 18:42 | 41.59759 | 14.07639 | 18234 ft | 442 kts | 142° |
| 2026-05-05 18:42 | 41.57538 | 14.10421 | 17106 ft | 434 kts | 137° |
| 2026-05-05 18:42 | 41.55424 | 14.13265 | 15984 ft | 428 kts | 136° |
| 2026-05-05 18:43 | 41.53421 | 14.16065 | 14973 ft | 420 kts | 135° |
| 2026-05-05 18:43 | 41.51580 | 14.18683 | 14060 ft | 413 kts | 134° |
| 2026-05-05 18:43 | 41.49646 | 14.21460 | 13022 ft | 406 kts | 134° |
| 2026-05-05 18:43 | 41.47746 | 14.24203 | 12038 ft | 399 kts | 134° |
| 2026-05-05 18:44 | 41.45737 | 14.26683 | 11144 ft | 388 kts | 148° |
| 2026-05-05 18:44 | 41.43353 | 14.28176 | 10448 ft | 372 kts | 167° |
| 2026-05-05 18:44 | 41.40887 | 14.28858 | 10108 ft | 350 kts | 171° |
| 2026-05-05 18:44 | 41.38584 | 14.29496 | 9950 ft | 327 kts | 171° |
| 2026-05-05 18:45 | 41.36411 | 14.30115 | 9624 ft | 312 kts | 170° |
| 2026-05-05 18:45 | 41.34331 | 14.30717 | 9265 ft | 300 kts | 170° |
| 2026-05-05 18:45 | 41.32336 | 14.31304 | 8931 ft | 288 kts | 169° |
| 2026-05-05 18:45 | 41.30444 | 14.31868 | 8638 ft | 277 kts | 171° |
| 2026-05-05 18:46 | 41.28595 | 14.32416 | 8340 ft | 267 kts | 169° |
| 2026-05-05 18:46 | 41.26820 | 14.32946 | 8061 ft | 257 kts | 169° |
| 2026-05-05 18:46 | 41.25073 | 14.33469 | 7801 ft | 262 kts | 169° |
| 2026-05-05 18:46 | 41.23274 | 14.34009 | 7520 ft | 268 kts | 169° |
| 2026-05-05 18:47 | 41.21446 | 14.34558 | 7241 ft | 270 kts | 169° |
| 2026-05-05 18:47 | 41.19618 | 14.35105 | 6995 ft | 266 kts | 169° |
| 2026-05-05 18:47 | 41.17885 | 14.35633 | 6844 ft | 251 kts | 167° |
| 2026-05-05 18:47 | 41.16349 | 14.36591 | 6689 ft | 239 kts | 149° |
| 2026-05-05 18:48 | 41.14984 | 14.37721 | 6559 ft | 225 kts | 151° |
| 2026-05-05 18:48 | 41.13661 | 14.38801 | 6452 ft | 226 kts | 150° |
| 2026-05-05 18:48 | 41.12320 | 14.39899 | 6376 ft | 232 kts | 150° |
| 2026-05-05 18:48 | 41.11000 | 14.40985 | 6338 ft | 213 kts | 150° |
| 2026-05-05 18:49 | 41.09801 | 14.41977 | 6188 ft | 198 kts | 148° |
| 2026-05-05 18:49 | 41.08827 | 14.43206 | 5995 ft | 191 kts | 136° |
| 2026-05-05 18:49 | 41.07773 | 14.44243 | 5722 ft | 188 kts | 153° |
| 2026-05-05 18:49 | 41.06653 | 14.45087 | 5439 ft | 188 kts | 153° |
| 2026-05-05 18:50 | 41.05527 | 14.45952 | 5167 ft | 186 kts | 152° |
| 2026-05-05 18:50 | 41.04416 | 14.46814 | 4877 ft | 184 kts | 152° |
| 2026-05-05 18:50 | 41.03316 | 14.47676 | 4610 ft | 184 kts | 152° |
| 2026-05-05 18:50 | 41.02205 | 14.48545 | 4280 ft | 185 kts | 155° |
| 2026-05-05 18:51 | 41.00995 | 14.48843 | 4018 ft | 175 kts | 193° |
| 2026-05-05 18:51 | 40.99892 | 14.48261 | 3822 ft | 170 kts | 207° |
| 2026-05-05 18:51 | 40.98852 | 14.47518 | 3668 ft | 169 kts | 209° |
| 2026-05-05 18:51 | 40.97843 | 14.46783 | 3454 ft | 164 kts | 209° |
| 2026-05-05 18:52 | 40.96886 | 14.46040 | 3239 ft | 155 kts | 217° |
| 2026-05-05 18:52 | 40.96168 | 14.45060 | 3089 ft | 146 kts | 232° |
| 2026-05-05 18:52 | 40.95605 | 14.43953 | 2901 ft | 145 kts | 236° |
| 2026-05-05 18:52 | 40.95067 | 14.42820 | 2721 ft | 146 kts | 237° |
| 2026-05-05 18:53 | 40.94537 | 14.41692 | 2498 ft | 145 kts | 237° |
| 2026-05-05 18:53 | 40.94005 | 14.40561 | 2275 ft | 145 kts | 237° |
| 2026-05-05 18:53 | 40.93473 | 14.39431 | 2062 ft | 145 kts | 238° |
| 2026-05-05 18:53 | 40.92950 | 14.38318 | 1844 ft | 144 kts | 238° |
| 2026-05-05 18:54 | 40.92417 | 14.37188 | 1578 ft | 146 kts | 239° |
| 2026-05-05 18:54 | 40.91876 | 14.36050 | 1314 ft | 147 kts | 238° |
| 2026-05-05 18:54 | 40.91331 | 14.34898 | 1095 ft | 148 kts | 240° |
| 2026-05-05 18:54 | 40.90795 | 14.33731 | 904 ft | 148 kts | 240° |
| 2026-05-05 18:55 | 40.90259 | 14.32568 | 718 ft | 149 kts | 239° |
| 2026-05-05 18:55 | 40.89709 | 14.31418 | 488 ft | 147 kts | 239° |
| 2026-05-05 18:55 | 40.89171 | 14.30273 | 281 ft | 146 kts | 238° |
| 2026-05-05 18:55 | 40.88676 | 14.29223 | 263 ft | 116 kts | 238° |
| 2026-05-05 18:56 | 40.88367 | 14.28573 | 287 ft | 68 kts | 238° |
| 2026-05-05 18:56 | 40.88130 | 14.28070 | 300 ft | 40 kts | 237° |
| 2026-05-05 18:56 | 40.88050 | 14.27903 | 303 ft | 19 kts | 238° |
| 2026-05-05 18:56 | 40.87956 | 14.27805 | 309 ft | 17 kts | 173° |
| 2026-05-05 18:57 | 40.87876 | 14.27874 | 310 ft | 17 kts | 138° |
| 2026-05-05 18:57 | 40.87850 | 14.27917 | 309 ft | 0 kts | 105° |
| 2026-05-05 18:57 | 40.87851 | 14.27929 | 309 ft | 3 kts | 75° |
| 2026-05-05 18:57 | 40.87871 | 14.27982 | 306 ft | 10 kts | 54° |
| 2026-05-05 18:58 | 40.87921 | 14.28059 | 305 ft | 9 kts | 56° |
| 2026-05-05 18:58 | 40.87968 | 14.28122 | 305 ft | 9 kts | 14° |
| 2026-05-05 18:58 | 40.88034 | 14.28166 | 299 ft | 14 kts | 51° |
| 2026-05-05 18:58 | 40.88070 | 14.28261 | 294 ft | 7 kts | 81° |
| 2026-05-05 18:59 | 40.88070 | 14.28264 | 295 ft | 0 kts | 83° |
| 2026-05-05 18:59 | 40.88069 | 14.28270 | 295 ft | 3 kts | 94° |
| 2026-05-05 18:59 | 40.88060 | 14.28345 | 291 ft | 12 kts | 100° |
| 2026-05-05 18:59 | 40.88049 | 14.28471 | 290 ft | 15 kts | 97° |
| 2026-05-05 19:00 | 40.88001 | 14.28524 | 295 ft | 7 kts | 210° |
| 2026-05-05 19:00 | 40.87960 | 14.28485 | 293 ft | 7 kts | 220° |
| 2026-05-05 19:00 | 40.87937 | 14.28434 | 297 ft | 7 kts | 268° |
| 2026-05-05 19:00 | 40.87943 | 14.28370 | 298 ft | 6 kts | 293° |
| 2026-05-05 19:01 | 40.87976 | 14.28337 | 295 ft | 7 kts | 333° |
| 2026-05-05 19:01 | 40.88006 | 14.28317 | 292 ft | 5 kts | 335° |
| 2026-05-05 19:01 | 40.88007 | 14.28316 | 292 ft | 0 kts | 334° |